sensor_id;sensor_type;location;lat;lon;timestamp;P1;durP1;ratioP1;P2;durP2;ratioP2
9224;SDS011;4647;48.072;11.616;2023-02-03T00:00:08;4.13;;;2.70;;
9224;SDS011;4647;48.072;11.616;2023-02-03T00:02:38;6.13;;;2.80;;
9224;SDS011;4647;48.072;11.616;2023-02-03T00:05:07;6.63;;;3.03;;
9224;SDS011;4647;48.072;11.616;2023-02-03T00:07:36;4.53;;;2.60;;
9224;SDS011;4647;48.072;11.616;2023-02-03T00:10:08;4.80;;;2.40;;
9224;SDS011;4647;48.072;11.616;2023-02-03T00:12:38;6.47;;;2.87;;
9224;SDS011;4647;48.072;11.616;2023-02-03T00:15:10;5.83;;;2.37;;
9224;SDS011;4647;48.072;11.616;2023-02-03T00:17:38;5.67;;;2.40;;
9224;SDS011;4647;48.072;11.616;2023-02-03T00:20:07;5.27;;;2.60;;
9224;SDS011;4647;48.072;11.616;2023-02-03T00:22:37;5.93;;;2.23;;
9224;SDS011;4647;48.072;11.616;2023-02-03T00:25:06;5.60;;;2.47;;
9224;SDS011;4647;48.072;11.616;2023-02-03T00:27:34;4.17;;;2.10;;
9224;SDS011;4647;48.072;11.616;2023-02-03T00:30:03;5.73;;;2.50;;
9224;SDS011;4647;48.072;11.616;2023-02-03T00:32:35;6.43;;;2.60;;
9224;SDS011;4647;48.072;11.616;2023-02-03T00:35:04;4.80;;;2.20;;
9224;SDS011;4647;48.072;11.616;2023-02-03T00:37:33;5.30;;;2.40;;
9224;SDS011;4647;48.072;11.616;2023-02-03T00:40:02;4.63;;;2.17;;
9224;SDS011;4647;48.072;11.616;2023-02-03T00:42:32;4.83;;;2.60;;
9224;SDS011;4647;48.072;11.616;2023-02-03T00:45:01;3.50;;;1.90;;
9224;SDS011;4647;48.072;11.616;2023-02-03T00:47:29;3.67;;;1.97;;
9224;SDS011;4647;48.072;11.616;2023-02-03T00:50:00;5.20;;;2.43;;
9224;SDS011;4647;48.072;11.616;2023-02-03T00:52:29;4.70;;;2.37;;
9224;SDS011;4647;48.072;11.616;2023-02-03T00:54:57;5.20;;;2.40;;
9224;SDS011;4647;48.072;11.616;2023-02-03T00:57:26;5.23;;;2.30;;
9224;SDS011;4647;48.072;11.616;2023-02-03T00:59:55;6.07;;;2.20;;
9224;SDS011;4647;48.072;11.616;2023-02-03T01:02:23;4.63;;;2.40;;
9224;SDS011;4647;48.072;11.616;2023-02-03T01:04:52;5.33;;;2.37;;
9224;SDS011;4647;48.072;11.616;2023-02-03T01:07:23;3.70;;;2.43;;
9224;SDS011;4647;48.072;11.616;2023-02-03T01:09:51;3.80;;;2.30;;
9224;SDS011;4647;48.072;11.616;2023-02-03T01:12:20;5.77;;;2.10;;
9224;SDS011;4647;48.072;11.616;2023-02-03T01:14:48;6.90;;;2.13;;
9224;SDS011;4647;48.072;11.616;2023-02-03T01:17:17;6.33;;;2.13;;
9224;SDS011;4647;48.072;11.616;2023-02-03T01:19:45;4.87;;;2.03;;
9224;SDS011;4647;48.072;11.616;2023-02-03T01:22:13;5.27;;;2.30;;
9224;SDS011;4647;48.072;11.616;2023-02-03T01:24:44;4.37;;;2.30;;
9224;SDS011;4647;48.072;11.616;2023-02-03T01:27:13;4.80;;;2.43;;
9224;SDS011;4647;48.072;11.616;2023-02-03T01:29:41;4.27;;;2.10;;
9224;SDS011;4647;48.072;11.616;2023-02-03T01:32:10;4.37;;;2.17;;
9224;SDS011;4647;48.072;11.616;2023-02-03T01:34:38;4.37;;;2.03;;
9224;SDS011;4647;48.072;11.616;2023-02-03T01:37:07;4.53;;;2.20;;
9224;SDS011;4647;48.072;11.616;2023-02-03T01:39:35;4.13;;;2.13;;
9224;SDS011;4647;48.072;11.616;2023-02-03T01:42:07;4.17;;;2.53;;
9224;SDS011;4647;48.072;11.616;2023-02-03T01:44:41;4.57;;;1.97;;
9224;SDS011;4647;48.072;11.616;2023-02-03T01:47:20;3.33;;;2.07;;
9224;SDS011;4647;48.072;11.616;2023-02-03T01:49:55;3.77;;;2.00;;
9224;SDS011;4647;48.072;11.616;2023-02-03T01:52:29;4.70;;;2.17;;
9224;SDS011;4647;48.072;11.616;2023-02-03T01:54:59;5.47;;;2.30;;
9224;SDS011;4647;48.072;11.616;2023-02-03T01:57:35;4.37;;;2.10;;
9224;SDS011;4647;48.072;11.616;2023-02-03T02:00:07;3.63;;;1.97;;
9224;SDS011;4647;48.072;11.616;2023-02-03T02:02:37;4.73;;;2.10;;
9224;SDS011;4647;48.072;11.616;2023-02-03T02:05:07;4.60;;;1.97;;
9224;SDS011;4647;48.072;11.616;2023-02-03T02:07:41;3.80;;;1.90;;
9224;SDS011;4647;48.072;11.616;2023-02-03T02:10:11;5.20;;;2.17;;
9224;SDS011;4647;48.072;11.616;2023-02-03T02:12:42;4.77;;;2.13;;
9224;SDS011;4647;48.072;11.616;2023-02-03T02:15:11;5.07;;;2.20;;
9224;SDS011;4647;48.072;11.616;2023-02-03T02:20:43;3.90;;;2.13;;
9224;SDS011;4647;48.072;11.616;2023-02-03T02:29:45;3.10;;;2.00;;
9224;SDS011;4647;48.072;11.616;2023-02-03T02:32:40;4.50;;;2.13;;
9224;SDS011;4647;48.072;11.616;2023-02-03T02:35:17;5.20;;;1.70;;
9224;SDS011;4647;48.072;11.616;2023-02-03T02:38:03;3.93;;;2.10;;
9224;SDS011;4647;48.072;11.616;2023-02-03T02:40:41;4.60;;;1.90;;
9224;SDS011;4647;48.072;11.616;2023-02-03T02:43:18;3.70;;;1.83;;
9224;SDS011;4647;48.072;11.616;2023-02-03T02:45:51;4.57;;;2.03;;
9224;SDS011;4647;48.072;11.616;2023-02-03T02:48:27;3.50;;;1.90;;
9224;SDS011;4647;48.072;11.616;2023-02-03T02:50:59;3.20;;;1.90;;
9224;SDS011;4647;48.072;11.616;2023-02-03T02:53:32;3.20;;;2.20;;
9224;SDS011;4647;48.072;11.616;2023-02-03T02:56:05;3.83;;;2.00;;
9224;SDS011;4647;48.072;11.616;2023-02-03T02:58:36;5.07;;;2.30;;
9224;SDS011;4647;48.072;11.616;2023-02-03T03:01:08;5.47;;;2.07;;
9224;SDS011;4647;48.072;11.616;2023-02-03T03:03:39;4.27;;;1.77;;
9224;SDS011;4647;48.072;11.616;2023-02-03T03:06:10;3.90;;;2.00;;
9224;SDS011;4647;48.072;11.616;2023-02-03T03:08:43;4.13;;;1.80;;
9224;SDS011;4647;48.072;11.616;2023-02-03T03:11:16;5.50;;;2.00;;
9224;SDS011;4647;48.072;11.616;2023-02-03T03:13:46;3.60;;;1.93;;
9224;SDS011;4647;48.072;11.616;2023-02-03T03:16:19;3.40;;;1.90;;
9224;SDS011;4647;48.072;11.616;2023-02-03T03:18:53;4.33;;;2.00;;
9224;SDS011;4647;48.072;11.616;2023-02-03T03:21:26;2.80;;;1.70;;
9224;SDS011;4647;48.072;11.616;2023-02-03T03:24:00;4.83;;;1.90;;
9224;SDS011;4647;48.072;11.616;2023-02-03T03:26:33;3.03;;;1.83;;
9224;SDS011;4647;48.072;11.616;2023-02-03T03:29:09;3.73;;;1.63;;
9224;SDS011;4647;48.072;11.616;2023-02-03T03:31:41;2.87;;;1.70;;
9224;SDS011;4647;48.072;11.616;2023-02-03T03:34:14;4.40;;;1.63;;
9224;SDS011;4647;48.072;11.616;2023-02-03T03:36:45;5.60;;;1.87;;
9224;SDS011;4647;48.072;11.616;2023-02-03T03:39:20;3.30;;;1.63;;
9224;SDS011;4647;48.072;11.616;2023-02-03T03:41:55;3.63;;;1.97;;
9224;SDS011;4647;48.072;11.616;2023-02-03T03:44:28;3.70;;;1.67;;
9224;SDS011;4647;48.072;11.616;2023-02-03T03:47:02;3.73;;;1.60;;
9224;SDS011;4647;48.072;11.616;2023-02-03T03:49:38;6.00;;;1.70;;
9224;SDS011;4647;48.072;11.616;2023-02-03T03:52:10;3.30;;;1.60;;
9224;SDS011;4647;48.072;11.616;2023-02-03T03:54:47;3.83;;;1.63;;
9224;SDS011;4647;48.072;11.616;2023-02-03T03:57:17;2.73;;;1.47;;
9224;SDS011;4647;48.072;11.616;2023-02-03T03:59:50;5.87;;;1.70;;
9224;SDS011;4647;48.072;11.616;2023-02-03T04:02:19;3.50;;;1.60;;
9224;SDS011;4647;48.072;11.616;2023-02-03T04:04:52;2.90;;;1.50;;
9224;SDS011;4647;48.072;11.616;2023-02-03T04:07:21;3.83;;;1.40;;
9224;SDS011;4647;48.072;11.616;2023-02-03T04:09:50;3.73;;;1.63;;
9224;SDS011;4647;48.072;11.616;2023-02-03T04:12:20;6.07;;;1.70;;
9224;SDS011;4647;48.072;11.616;2023-02-03T04:14:50;3.57;;;1.60;;
9224;SDS011;4647;48.072;11.616;2023-02-03T04:17:19;2.17;;;1.47;;
9224;SDS011;4647;48.072;11.616;2023-02-03T04:19:47;4.73;;;1.57;;
9224;SDS011;4647;48.072;11.616;2023-02-03T04:22:18;4.53;;;1.53;;
9224;SDS011;4647;48.072;11.616;2023-02-03T04:24:47;2.70;;;1.87;;
9224;SDS011;4647;48.072;11.616;2023-02-03T04:27:15;4.90;;;1.70;;
9224;SDS011;4647;48.072;11.616;2023-02-03T04:29:44;2.53;;;1.40;;
9224;SDS011;4647;48.072;11.616;2023-02-03T04:32:14;2.57;;;1.40;;
9224;SDS011;4647;48.072;11.616;2023-02-03T04:34:43;2.43;;;1.40;;
9224;SDS011;4647;48.072;11.616;2023-02-03T04:37:12;4.73;;;1.47;;
9224;SDS011;4647;48.072;11.616;2023-02-03T04:39:43;5.67;;;1.80;;
9224;SDS011;4647;48.072;11.616;2023-02-03T04:42:12;3.90;;;1.30;;
9224;SDS011;4647;48.072;11.616;2023-02-03T04:44:40;2.83;;;1.40;;
9224;SDS011;4647;48.072;11.616;2023-02-03T04:47:08;2.80;;;1.40;;
9224;SDS011;4647;48.072;11.616;2023-02-03T04:49:37;3.53;;;1.40;;
9224;SDS011;4647;48.072;11.616;2023-02-03T04:52:06;4.20;;;1.50;;
9224;SDS011;4647;48.072;11.616;2023-02-03T04:54:34;3.83;;;1.30;;
9224;SDS011;4647;48.072;11.616;2023-02-03T04:57:06;11.53;;;1.67;;
9224;SDS011;4647;48.072;11.616;2023-02-03T04:59:34;4.47;;;1.70;;
9224;SDS011;4647;48.072;11.616;2023-02-03T05:02:03;5.50;;;1.60;;
9224;SDS011;4647;48.072;11.616;2023-02-03T05:04:32;4.53;;;1.50;;
9224;SDS011;4647;48.072;11.616;2023-02-03T05:07:01;5.67;;;2.13;;
9224;SDS011;4647;48.072;11.616;2023-02-03T05:09:29;4.57;;;1.80;;
9224;SDS011;4647;48.072;11.616;2023-02-03T05:11:58;3.53;;;1.67;;
9224;SDS011;4647;48.072;11.616;2023-02-03T05:14:32;3.20;;;1.50;;
9224;SDS011;4647;48.072;11.616;2023-02-03T05:17:00;3.77;;;1.57;;
9224;SDS011;4647;48.072;11.616;2023-02-03T05:19:28;4.90;;;1.70;;
9224;SDS011;4647;48.072;11.616;2023-02-03T05:21:57;3.23;;;1.87;;
9224;SDS011;4647;48.072;11.616;2023-02-03T05:24:25;3.67;;;1.83;;
9224;SDS011;4647;48.072;11.616;2023-02-03T05:26:54;3.87;;;1.73;;
9224;SDS011;4647;48.072;11.616;2023-02-03T05:29:23;4.60;;;2.17;;
9224;SDS011;4647;48.072;11.616;2023-02-03T05:31:54;7.50;;;3.10;;
9224;SDS011;4647;48.072;11.616;2023-02-03T05:34:22;9.23;;;3.80;;
9224;SDS011;4647;48.072;11.616;2023-02-03T05:36:50;3.87;;;2.13;;
9224;SDS011;4647;48.072;11.616;2023-02-03T05:39:19;3.97;;;1.83;;
9224;SDS011;4647;48.072;11.616;2023-02-03T05:41:47;5.30;;;2.33;;
9224;SDS011;4647;48.072;11.616;2023-02-03T05:44:20;4.10;;;1.70;;
9224;SDS011;4647;48.072;11.616;2023-02-03T05:46:51;4.27;;;1.90;;
9224;SDS011;4647;48.072;11.616;2023-02-03T05:49:24;2.80;;;1.70;;
9224;SDS011;4647;48.072;11.616;2023-02-03T05:51:53;4.33;;;1.63;;
9224;SDS011;4647;48.072;11.616;2023-02-03T05:54:22;2.93;;;1.70;;
9224;SDS011;4647;48.072;11.616;2023-02-03T05:56:51;5.10;;;1.73;;
9224;SDS011;4647;48.072;11.616;2023-02-03T05:59:19;4.73;;;1.60;;
9224;SDS011;4647;48.072;11.616;2023-02-03T06:01:48;6.30;;;1.60;;
9224;SDS011;4647;48.072;11.616;2023-02-03T06:04:20;3.60;;;1.70;;
9224;SDS011;4647;48.072;11.616;2023-02-03T06:06:48;4.90;;;2.03;;
9224;SDS011;4647;48.072;11.616;2023-02-03T06:09:17;2.73;;;1.60;;
9224;SDS011;4647;48.072;11.616;2023-02-03T06:11:45;2.77;;;1.70;;
9224;SDS011;4647;48.072;11.616;2023-02-03T06:14:14;4.17;;;1.93;;
9224;SDS011;4647;48.072;11.616;2023-02-03T06:16:42;5.53;;;1.70;;
9224;SDS011;4647;48.072;11.616;2023-02-03T06:19:10;4.93;;;1.77;;
9224;SDS011;4647;48.072;11.616;2023-02-03T06:21:41;3.60;;;1.70;;
9224;SDS011;4647;48.072;11.616;2023-02-03T06:24:10;4.47;;;1.57;;
9224;SDS011;4647;48.072;11.616;2023-02-03T06:26:38;6.07;;;1.70;;
9224;SDS011;4647;48.072;11.616;2023-02-03T06:29:06;5.73;;;1.80;;
9224;SDS011;4647;48.072;11.616;2023-02-03T06:31:35;4.73;;;1.80;;
9224;SDS011;4647;48.072;11.616;2023-02-03T06:34:03;4.37;;;1.80;;
9224;SDS011;4647;48.072;11.616;2023-02-03T06:36:32;4.13;;;1.80;;
9224;SDS011;4647;48.072;11.616;2023-02-03T06:39:03;2.60;;;1.43;;
9224;SDS011;4647;48.072;11.616;2023-02-03T06:41:31;3.53;;;1.80;;
9224;SDS011;4647;48.072;11.616;2023-02-03T06:43:59;3.97;;;1.70;;
9224;SDS011;4647;48.072;11.616;2023-02-03T06:46:28;4.70;;;1.90;;
9224;SDS011;4647;48.072;11.616;2023-02-03T06:48:57;3.00;;;1.77;;
9224;SDS011;4647;48.072;11.616;2023-02-03T06:51:26;2.97;;;1.50;;
9224;SDS011;4647;48.072;11.616;2023-02-03T06:53:54;3.67;;;1.50;;
9224;SDS011;4647;48.072;11.616;2023-02-03T06:56:26;4.83;;;1.67;;
9224;SDS011;4647;48.072;11.616;2023-02-03T06:58:54;4.20;;;1.77;;
9224;SDS011;4647;48.072;11.616;2023-02-03T07:01:23;3.70;;;1.60;;
9224;SDS011;4647;48.072;11.616;2023-02-03T07:03:53;4.67;;;1.40;;
9224;SDS011;4647;48.072;11.616;2023-02-03T07:06:23;3.17;;;1.70;;
9224;SDS011;4647;48.072;11.616;2023-02-03T07:08:54;2.50;;;1.47;;
9224;SDS011;4647;48.072;11.616;2023-02-03T07:11:22;4.33;;;1.87;;
9224;SDS011;4647;48.072;11.616;2023-02-03T07:13:53;3.50;;;1.80;;
9224;SDS011;4647;48.072;11.616;2023-02-03T07:16:22;10.57;;;3.73;;
9224;SDS011;4647;48.072;11.616;2023-02-03T07:18:51;4.37;;;1.97;;
9224;SDS011;4647;48.072;11.616;2023-02-03T07:21:20;3.20;;;1.60;;
9224;SDS011;4647;48.072;11.616;2023-02-03T07:23:48;11.80;;;3.57;;
9224;SDS011;4647;48.072;11.616;2023-02-03T07:26:17;13.93;;;5.40;;
9224;SDS011;4647;48.072;11.616;2023-02-03T07:28:47;3.73;;;1.80;;
9224;SDS011;4647;48.072;11.616;2023-02-03T07:31:19;2.63;;;1.80;;
9224;SDS011;4647;48.072;11.616;2023-02-03T07:33:47;3.83;;;1.80;;
9224;SDS011;4647;48.072;11.616;2023-02-03T07:36:15;3.30;;;1.70;;
9224;SDS011;4647;48.072;11.616;2023-02-03T07:38:44;3.90;;;1.50;;
9224;SDS011;4647;48.072;11.616;2023-02-03T07:41:12;3.80;;;1.80;;
9224;SDS011;4647;48.072;11.616;2023-02-03T07:43:41;2.97;;;1.60;;
9224;SDS011;4647;48.072;11.616;2023-02-03T07:46:09;3.83;;;1.60;;
9224;SDS011;4647;48.072;11.616;2023-02-03T07:48:40;4.17;;;1.63;;
9224;SDS011;4647;48.072;11.616;2023-02-03T07:51:09;5.30;;;1.53;;
9224;SDS011;4647;48.072;11.616;2023-02-03T07:53:37;2.93;;;1.50;;
9224;SDS011;4647;48.072;11.616;2023-02-03T07:56:06;3.67;;;1.73;;
9224;SDS011;4647;48.072;11.616;2023-02-03T07:58:36;2.60;;;1.50;;
9224;SDS011;4647;48.072;11.616;2023-02-03T08:01:08;3.40;;;1.40;;
9224;SDS011;4647;48.072;11.616;2023-02-03T08:03:41;4.17;;;1.67;;
9224;SDS011;4647;48.072;11.616;2023-02-03T08:06:09;4.67;;;1.90;;
9224;SDS011;4647;48.072;11.616;2023-02-03T08:08:38;2.67;;;1.87;;
9224;SDS011;4647;48.072;11.616;2023-02-03T08:11:06;3.23;;;1.57;;
9224;SDS011;4647;48.072;11.616;2023-02-03T08:13:35;2.67;;;1.60;;
9224;SDS011;4647;48.072;11.616;2023-02-03T08:16:04;3.40;;;1.60;;
9224;SDS011;4647;48.072;11.616;2023-02-03T08:18:33;3.20;;;1.40;;
9224;SDS011;4647;48.072;11.616;2023-02-03T08:21:04;2.20;;;1.50;;
9224;SDS011;4647;48.072;11.616;2023-02-03T08:23:33;1.50;;;1.30;;
9224;SDS011;4647;48.072;11.616;2023-02-03T08:26:01;3.10;;;1.30;;
9224;SDS011;4647;48.072;11.616;2023-02-03T08:28:29;2.77;;;1.50;;
9224;SDS011;4647;48.072;11.616;2023-02-03T08:30:58;2.57;;;1.30;;
9224;SDS011;4647;48.072;11.616;2023-02-03T08:33:27;2.13;;;1.30;;
9224;SDS011;4647;48.072;11.616;2023-02-03T08:35:55;3.80;;;1.40;;
9224;SDS011;4647;48.072;11.616;2023-02-03T08:38:27;2.63;;;1.43;;
9224;SDS011;4647;48.072;11.616;2023-02-03T08:40:56;2.07;;;1.40;;
9224;SDS011;4647;48.072;11.616;2023-02-03T08:43:24;2.60;;;1.30;;
9224;SDS011;4647;48.072;11.616;2023-02-03T08:45:53;2.73;;;1.30;;
9224;SDS011;4647;48.072;11.616;2023-02-03T08:48:21;4.20;;;1.70;;
9224;SDS011;4647;48.072;11.616;2023-02-03T08:50:49;3.93;;;1.40;;
9224;SDS011;4647;48.072;11.616;2023-02-03T08:53:18;5.33;;;1.50;;
9224;SDS011;4647;48.072;11.616;2023-02-03T08:55:49;3.40;;;1.40;;
9224;SDS011;4647;48.072;11.616;2023-02-03T08:58:17;3.73;;;1.60;;
9224;SDS011;4647;48.072;11.616;2023-02-03T09:00:46;3.53;;;1.40;;
9224;SDS011;4647;48.072;11.616;2023-02-03T09:03:17;2.67;;;1.60;;
9224;SDS011;4647;48.072;11.616;2023-02-03T09:05:46;2.57;;;1.30;;
9224;SDS011;4647;48.072;11.616;2023-02-03T09:08:14;2.73;;;1.40;;
9224;SDS011;4647;48.072;11.616;2023-02-03T09:10:42;1.90;;;1.30;;
9224;SDS011;4647;48.072;11.616;2023-02-03T09:13:13;2.60;;;1.23;;
9224;SDS011;4647;48.072;11.616;2023-02-03T09:15:42;2.90;;;1.40;;
9224;SDS011;4647;48.072;11.616;2023-02-03T09:18:10;1.90;;;1.23;;
9224;SDS011;4647;48.072;11.616;2023-02-03T09:20:39;4.60;;;1.43;;
9224;SDS011;4647;48.072;11.616;2023-02-03T09:23:07;1.70;;;1.30;;
9224;SDS011;4647;48.072;11.616;2023-02-03T09:25:35;4.90;;;1.30;;
9224;SDS011;4647;48.072;11.616;2023-02-03T09:28:04;2.07;;;1.17;;
9224;SDS011;4647;48.072;11.616;2023-02-03T09:30:35;4.67;;;1.40;;
9224;SDS011;4647;48.072;11.616;2023-02-03T09:33:03;3.93;;;1.30;;
9224;SDS011;4647;48.072;11.616;2023-02-03T09:35:32;3.07;;;1.43;;
9224;SDS011;4647;48.072;11.616;2023-02-03T09:38:00;2.10;;;1.40;;
9224;SDS011;4647;48.072;11.616;2023-02-03T09:40:29;2.23;;;1.40;;
9224;SDS011;4647;48.072;11.616;2023-02-03T09:43:03;2.63;;;1.30;;
9224;SDS011;4647;48.072;11.616;2023-02-03T09:45:43;2.27;;;1.53;;
9224;SDS011;4647;48.072;11.616;2023-02-03T09:48:13;3.43;;;1.37;;
9224;SDS011;4647;48.072;11.616;2023-02-03T09:50:45;2.53;;;1.50;;
9224;SDS011;4647;48.072;11.616;2023-02-03T09:53:18;2.00;;;1.40;;
9224;SDS011;4647;48.072;11.616;2023-02-03T09:55:54;2.20;;;1.00;;
9224;SDS011;4647;48.072;11.616;2023-02-03T09:58:25;5.17;;;1.40;;
9224;SDS011;4647;48.072;11.616;2023-02-03T10:01:02;2.27;;;1.30;;
9224;SDS011;4647;48.072;11.616;2023-02-03T10:03:38;3.27;;;1.13;;
9224;SDS011;4647;48.072;11.616;2023-02-03T10:06:15;3.00;;;1.60;;
9224;SDS011;4647;48.072;11.616;2023-02-03T10:08:56;3.77;;;1.37;;
9224;SDS011;4647;48.072;11.616;2023-02-03T10:11:46;4.27;;;1.33;;
9224;SDS011;4647;48.072;11.616;2023-02-03T10:14:27;1.97;;;1.20;;
9224;SDS011;4647;48.072;11.616;2023-02-03T10:17:13;3.37;;;1.50;;
9224;SDS011;4647;48.072;11.616;2023-02-03T10:19:52;1.43;;;1.20;;
9224;SDS011;4647;48.072;11.616;2023-02-03T10:22:24;1.93;;;1.33;;
9224;SDS011;4647;48.072;11.616;2023-02-03T10:24:56;3.17;;;1.47;;
9224;SDS011;4647;48.072;11.616;2023-02-03T10:27:27;2.50;;;1.47;;
9224;SDS011;4647;48.072;11.616;2023-02-03T10:29:57;2.83;;;1.47;;
9224;SDS011;4647;48.072;11.616;2023-02-03T10:32:33;2.87;;;1.43;;
9224;SDS011;4647;48.072;11.616;2023-02-03T10:35:02;2.23;;;1.30;;
9224;SDS011;4647;48.072;11.616;2023-02-03T10:37:33;4.53;;;1.53;;
9224;SDS011;4647;48.072;11.616;2023-02-03T10:40:11;1.73;;;1.30;;
9224;SDS011;4647;48.072;11.616;2023-02-03T10:42:40;2.27;;;1.20;;
9224;SDS011;4647;48.072;11.616;2023-02-03T10:45:23;2.93;;;1.30;;
9224;SDS011;4647;48.072;11.616;2023-02-03T10:47:54;3.03;;;1.30;;
9224;SDS011;4647;48.072;11.616;2023-02-03T10:50:23;2.30;;;1.30;;
9224;SDS011;4647;48.072;11.616;2023-02-03T10:52:59;1.77;;;1.40;;
9224;SDS011;4647;48.072;11.616;2023-02-03T10:55:47;2.30;;;1.30;;
9224;SDS011;4647;48.072;11.616;2023-02-03T10:58:20;5.87;;;1.73;;
9224;SDS011;4647;48.072;11.616;2023-02-03T11:00:56;3.70;;;1.30;;
9224;SDS011;4647;48.072;11.616;2023-02-03T11:03:34;2.43;;;1.40;;
9224;SDS011;4647;48.072;11.616;2023-02-03T11:06:07;2.23;;;1.50;;
9224;SDS011;4647;48.072;11.616;2023-02-03T11:08:39;2.03;;;1.20;;
9224;SDS011;4647;48.072;11.616;2023-02-03T11:11:12;1.83;;;1.27;;
9224;SDS011;4647;48.072;11.616;2023-02-03T11:13:43;2.67;;;1.43;;
9224;SDS011;4647;48.072;11.616;2023-02-03T11:16:13;2.23;;;1.40;;
9224;SDS011;4647;48.072;11.616;2023-02-03T11:18:52;3.27;;;1.40;;
9224;SDS011;4647;48.072;11.616;2023-02-03T11:21:24;1.67;;;1.20;;
9224;SDS011;4647;48.072;11.616;2023-02-03T11:24:01;1.50;;;1.23;;
9224;SDS011;4647;48.072;11.616;2023-02-03T11:26:33;1.67;;;1.13;;
9224;SDS011;4647;48.072;11.616;2023-02-03T11:29:04;2.07;;;1.10;;
9224;SDS011;4647;48.072;11.616;2023-02-03T11:31:34;4.17;;;1.30;;
9224;SDS011;4647;48.072;11.616;2023-02-03T11:34:06;3.33;;;1.47;;
9224;SDS011;4647;48.072;11.616;2023-02-03T11:36:43;2.00;;;1.47;;
9224;SDS011;4647;48.072;11.616;2023-02-03T11:39:16;2.07;;;1.30;;
9224;SDS011;4647;48.072;11.616;2023-02-03T11:41:47;1.33;;;1.00;;
9224;SDS011;4647;48.072;11.616;2023-02-03T11:44:17;2.27;;;1.20;;
9224;SDS011;4647;48.072;11.616;2023-02-03T11:46:48;1.83;;;1.20;;
9224;SDS011;4647;48.072;11.616;2023-02-03T11:49:37;1.40;;;1.00;;
9224;SDS011;4647;48.072;11.616;2023-02-03T11:52:29;2.13;;;1.20;;
9224;SDS011;4647;48.072;11.616;2023-02-03T11:55:06;1.23;;;1.13;;
9224;SDS011;4647;48.072;11.616;2023-02-03T11:57:49;1.87;;;1.00;;
9224;SDS011;4647;48.072;11.616;2023-02-03T12:00:29;2.00;;;1.30;;
9224;SDS011;4647;48.072;11.616;2023-02-03T12:03:17;3.70;;;1.43;;
9224;SDS011;4647;48.072;11.616;2023-02-03T12:06:01;1.40;;;1.10;;
9224;SDS011;4647;48.072;11.616;2023-02-03T12:09:05;2.00;;;1.30;;
9224;SDS011;4647;48.072;11.616;2023-02-03T12:11:50;3.43;;;1.10;;
9224;SDS011;4647;48.072;11.616;2023-02-03T12:14:37;2.73;;;1.20;;
9224;SDS011;4647;48.072;11.616;2023-02-03T12:17:27;2.23;;;1.30;;
9224;SDS011;4647;48.072;11.616;2023-02-03T12:20:23;1.20;;;1.10;;
9224;SDS011;4647;48.072;11.616;2023-02-03T12:23:06;1.27;;;0.90;;
9224;SDS011;4647;48.072;11.616;2023-02-03T12:25:49;2.27;;;1.50;;
9224;SDS011;4647;48.072;11.616;2023-02-03T12:28:38;1.83;;;1.10;;
9224;SDS011;4647;48.072;11.616;2023-02-03T12:31:14;4.33;;;1.20;;
9224;SDS011;4647;48.072;11.616;2023-02-03T12:33:55;2.33;;;0.90;;
9224;SDS011;4647;48.072;11.616;2023-02-03T12:36:31;4.27;;;1.10;;
9224;SDS011;4647;48.072;11.616;2023-02-03T12:39:10;2.07;;;1.03;;
9224;SDS011;4647;48.072;11.616;2023-02-03T12:41:47;1.70;;;1.00;;
9224;SDS011;4647;48.072;11.616;2023-02-03T12:44:19;2.07;;;1.20;;
9224;SDS011;4647;48.072;11.616;2023-02-03T12:46:52;2.00;;;1.37;;
9224;SDS011;4647;48.072;11.616;2023-02-03T12:49:30;2.97;;;1.10;;
9224;SDS011;4647;48.072;11.616;2023-02-03T12:52:10;2.80;;;1.30;;
9224;SDS011;4647;48.072;11.616;2023-02-03T12:54:48;2.07;;;1.07;;
9224;SDS011;4647;48.072;11.616;2023-02-03T12:57:22;1.90;;;1.17;;
9224;SDS011;4647;48.072;11.616;2023-02-03T13:00:02;2.90;;;1.23;;
9224;SDS011;4647;48.072;11.616;2023-02-03T13:02:47;3.83;;;1.00;;
9224;SDS011;4647;48.072;11.616;2023-02-03T13:05:25;1.57;;;1.10;;
9224;SDS011;4647;48.072;11.616;2023-02-03T13:08:00;1.67;;;1.10;;
9224;SDS011;4647;48.072;11.616;2023-02-03T13:10:43;2.43;;;1.20;;
9224;SDS011;4647;48.072;11.616;2023-02-03T13:13:16;2.93;;;1.47;;
9224;SDS011;4647;48.072;11.616;2023-02-03T13:15:51;2.27;;;1.20;;
9224;SDS011;4647;48.072;11.616;2023-02-03T13:18:23;1.60;;;1.20;;
9224;SDS011;4647;48.072;11.616;2023-02-03T13:20:54;1.67;;;1.37;;
9224;SDS011;4647;48.072;11.616;2023-02-03T13:23:23;5.67;;;2.00;;
9224;SDS011;4647;48.072;11.616;2023-02-03T13:26:05;9.30;;;3.33;;
9224;SDS011;4647;48.072;11.616;2023-02-03T13:32:00;1.30;;;1.00;;
9224;SDS011;4647;48.072;11.616;2023-02-03T13:34:44;2.70;;;1.27;;
9224;SDS011;4647;48.072;11.616;2023-02-03T13:40:31;1.70;;;1.10;;
9224;SDS011;4647;48.072;11.616;2023-02-03T13:43:14;2.00;;;1.17;;
9224;SDS011;4647;48.072;11.616;2023-02-03T13:45:47;2.53;;;1.30;;
9224;SDS011;4647;48.072;11.616;2023-02-03T13:48:18;5.03;;;1.40;;
9224;SDS011;4647;48.072;11.616;2023-02-03T13:50:49;3.27;;;1.37;;
9224;SDS011;4647;48.072;11.616;2023-02-03T13:53:28;2.07;;;1.30;;
9224;SDS011;4647;48.072;11.616;2023-02-03T13:56:03;2.70;;;1.10;;
9224;SDS011;4647;48.072;11.616;2023-02-03T13:58:37;2.33;;;1.30;;
9224;SDS011;4647;48.072;11.616;2023-02-03T14:03:58;2.60;;;1.50;;
9224;SDS011;4647;48.072;11.616;2023-02-03T14:09:38;1.90;;;1.10;;
9224;SDS011;4647;48.072;11.616;2023-02-03T14:12:18;2.13;;;1.40;;
9224;SDS011;4647;48.072;11.616;2023-02-03T14:14:57;4.60;;;1.10;;
9224;SDS011;4647;48.072;11.616;2023-02-03T14:20:33;2.20;;;1.20;;
9224;SDS011;4647;48.072;11.616;2023-02-03T14:23:06;1.23;;;0.90;;
9224;SDS011;4647;48.072;11.616;2023-02-03T14:25:39;2.37;;;1.10;;
9224;SDS011;4647;48.072;11.616;2023-02-03T14:28:10;2.13;;;1.10;;
9224;SDS011;4647;48.072;11.616;2023-02-03T14:36:35;1.67;;;1.20;;
9224;SDS011;4647;48.072;11.616;2023-02-03T14:42:04;2.03;;;1.20;;
9224;SDS011;4647;48.072;11.616;2023-02-03T14:44:44;1.37;;;1.27;;
9224;SDS011;4647;48.072;11.616;2023-02-03T14:47:26;1.37;;;1.17;;
9224;SDS011;4647;48.072;11.616;2023-02-03T14:50:18;1.73;;;1.20;;
9224;SDS011;4647;48.072;11.616;2023-02-03T14:53:02;2.90;;;1.30;;
9224;SDS011;4647;48.072;11.616;2023-02-03T14:55:54;3.00;;;1.40;;
9224;SDS011;4647;48.072;11.616;2023-02-03T14:58:39;2.17;;;1.30;;
9224;SDS011;4647;48.072;11.616;2023-02-03T15:01:22;3.13;;;1.30;;
9224;SDS011;4647;48.072;11.616;2023-02-03T15:06:51;2.17;;;1.50;;
9224;SDS011;4647;48.072;11.616;2023-02-03T15:09:23;4.07;;;1.50;;
9224;SDS011;4647;48.072;11.616;2023-02-03T15:11:55;3.97;;;1.40;;
9224;SDS011;4647;48.072;11.616;2023-02-03T15:14:24;3.97;;;1.30;;
9224;SDS011;4647;48.072;11.616;2023-02-03T15:16:56;2.23;;;1.40;;
9224;SDS011;4647;48.072;11.616;2023-02-03T15:19:31;2.90;;;1.33;;
9224;SDS011;4647;48.072;11.616;2023-02-03T15:22:01;5.33;;;1.40;;
9224;SDS011;4647;48.072;11.616;2023-02-03T15:24:33;2.87;;;1.53;;
9224;SDS011;4647;48.072;11.616;2023-02-03T15:27:03;1.97;;;1.37;;
9224;SDS011;4647;48.072;11.616;2023-02-03T15:29:32;2.77;;;1.30;;
9224;SDS011;4647;48.072;11.616;2023-02-03T15:32:02;2.63;;;1.40;;
9224;SDS011;4647;48.072;11.616;2023-02-03T15:34:40;3.57;;;1.30;;
9224;SDS011;4647;48.072;11.616;2023-02-03T15:37:13;2.43;;;1.37;;
9224;SDS011;4647;48.072;11.616;2023-02-03T15:39:47;5.60;;;1.67;;
9224;SDS011;4647;48.072;11.616;2023-02-03T15:42:24;3.33;;;1.90;;
9224;SDS011;4647;48.072;11.616;2023-02-03T15:44:59;1.97;;;1.50;;
9224;SDS011;4647;48.072;11.616;2023-02-03T15:47:34;1.00;;;0.90;;
9224;SDS011;4647;48.072;11.616;2023-02-03T15:50:14;11.70;;;4.47;;
9224;SDS011;4647;48.072;11.616;2023-02-03T15:52:51;2.73;;;1.80;;
9224;SDS011;4647;48.072;11.616;2023-02-03T15:55:24;10.00;;;3.10;;
9224;SDS011;4647;48.072;11.616;2023-02-03T15:57:59;3.60;;;1.83;;
9224;SDS011;4647;48.072;11.616;2023-02-03T16:00:30;5.60;;;1.50;;
9224;SDS011;4647;48.072;11.616;2023-02-03T16:03:03;2.57;;;1.40;;
9224;SDS011;4647;48.072;11.616;2023-02-03T16:05:36;1.93;;;1.40;;
9224;SDS011;4647;48.072;11.616;2023-02-03T16:10:53;1.77;;;1.43;;